Time;durP1;ratioP1;P1;durP2;ratioP2;P2;SDS_P1;SDS_P2;PMS_P1;PMS_P2;Temp;Humidity;BMP_temperature;BMP_pressure;BME280_temperature;BME280_humidity;BME280_pressure;Samples;Min_cycle;Max_cycle;Signal;HPM_P1;HPM_P2
2023/02/16 00:00:41;;;;;;;16.63;12.93;;;0.30;99.90;;;;;;5017498;28;20202;-89
2023/02/16 00:03:11;;;;;;;15.43;12.83;;;0.40;99.90;;;;;;5015851;28;20226;-89
2023/02/16 00:05:38;;;;;;;15.13;12.43;;;0.40;99.90;;;;;;5015954;28;20203;-87
2023/02/16 00:08:05;;;;;;;16.87;13.50;;;0.40;99.90;;;;;;5016084;28;20682;-86
2023/02/16 00:10:35;;;;;;;15.80;12.63;;;0.40;99.90;;;;;;5014642;28;20200;-87
2023/02/16 00:15:48;;;;;;;20.03;13.10;;;0.40;99.90;;;;;;5013419;28;20210;-88
2023/02/16 00:18:17;;;;;;;16.93;12.77;;;0.40;99.90;;;;;;5016639;28;20210;-89
2023/02/16 00:20:45;;;;;;;16.03;12.70;;;0.40;99.90;;;;;;5014554;28;20207;-88
2023/02/16 00:23:12;;;;;;;17.37;13.20;;;0.40;99.90;;;;;;5016494;28;20211;-88
2023/02/16 00:25:39;;;;;;;17.43;13.60;;;0.40;99.90;;;;;;5016841;28;20199;-88
2023/02/16 00:28:13;;;;;;;16.83;13.17;;;0.30;99.90;;;;;;5015974;28;20870;-87
2023/02/16 00:30:40;;;;;;;17.63;12.80;;;0.40;99.90;;;;;;5014518;28;20226;-89
2023/02/16 00:33:15;;;;;;;16.33;12.43;;;0.50;99.90;;;;;;5012450;28;20709;-89
2023/02/16 00:35:42;;;;;;;17.17;12.80;;;0.40;99.90;;;;;;5014813;28;20934;-89
2023/02/16 00:38:09;;;;;;;17.63;12.80;;;0.40;99.90;;;;;;5010258;28;20199;-87
2023/02/16 00:40:36;;;;;;;17.13;12.60;;;0.40;99.90;;;;;;5011867;28;20199;-89
2023/02/16 00:43:03;;;;;;;18.10;12.53;;;0.40;99.90;;;;;;5009752;28;20203;-87
2023/02/16 00:45:32;;;;;;;16.97;12.37;;;0.50;99.60;;;;;;5015314;28;20225;-88
2023/02/16 00:47:58;;;;;;;17.33;12.73;;;0.50;99.30;;;;;;5011629;28;20871;-88
2023/02/16 00:50:29;;;;;;;16.03;12.63;;;0.50;99.30;;;;;;5018917;28;20222;-85
2023/02/16 00:52:57;;;;;;;15.80;11.80;;;0.40;99.30;;;;;;5037259;28;20205;-86
2023/02/16 00:55:26;;;;;;;15.77;11.53;;;0.30;99.70;;;;;;5023488;28;20239;-88
2023/02/16 00:57:55;;;;;;;13.73;10.60;;;0.30;99.70;;;;;;5016754;28;20225;-86
2023/02/16 01:00:25;;;;;;;16.50;10.93;;;0.30;99.80;;;;;;5014937;28;20627;-89
2023/02/16 01:02:55;;;;;;;15.70;11.57;;;0.30;99.80;;;;;;5014921;28;20206;-88
2023/02/16 01:05:22;;;;;;;19.30;11.17;;;0.30;99.80;;;;;;5007245;28;20199;-88
2023/02/16 01:11:09;;;;;;;14.00;10.63;;;0.10;99.90;;;;;;4970909;28;20785;-88
2023/02/16 01:13:41;;;;;;;12.13;8.70;;;0.10;99.90;;;;;;4969576;28;20213;-87
2023/02/16 01:16:14;;;;;;;13.10;10.03;;;0.00;99.90;;;;;;4997093;28;20207;-88
2023/02/16 01:18:41;;;;;;;12.70;9.03;;;-0.10;99.90;;;;;;5013815;28;20199;-87
2023/02/16 01:21:08;;;;;;;12.50;9.07;;;-0.10;99.90;;;;;;5019821;28;20213;-89
2023/02/16 01:23:37;;;;;;;13.13;8.93;;;-0.10;99.90;;;;;;5013474;28;20207;-87
2023/02/16 01:26:05;;;;;;;15.67;9.57;;;-0.10;99.90;;;;;;5014859;28;20210;-88
2023/02/16 01:28:35;;;;;;;13.83;9.43;;;0.00;99.90;;;;;;5013030;28;20209;-88
2023/02/16 01:31:02;;;;;;;12.97;9.07;;;0.10;99.90;;;;;;5009554;28;20219;-89
2023/02/16 01:33:30;;;;;;;13.57;8.97;;;0.00;99.90;;;;;;5010205;28;20250;-87
2023/02/16 01:35:57;;;;;;;13.97;9.03;;;0.10;99.90;;;;;;5011882;28;20207;-88
2023/02/16 01:38:27;;;;;;;9.70;7.50;;;0.10;99.90;;;;;;5011617;28;20208;-88
2023/02/16 01:41:04;;;;;;;11.60;7.63;;;0.10;99.90;;;;;;5012626;28;20215;-88
2023/02/16 01:43:39;;;;;;;9.53;7.30;;;0.10;99.90;;;;;;5011434;28;20202;-85
2023/02/16 01:46:13;;;;;;;10.07;6.83;;;0.20;99.90;;;;;;5008485;28;20205;-87
2023/02/16 01:48:40;;;;;;;11.47;7.63;;;0.30;99.90;;;;;;5009871;28;20190;-88
2023/02/16 01:51:15;;;;;;;9.47;7.07;;;0.30;99.90;;;;;;5013828;28;20209;-88
2023/02/16 01:53:46;;;;;;;10.13;7.30;;;0.40;99.90;;;;;;5013483;28;20210;-84
2023/02/16 01:56:20;;;;;;;10.53;8.20;;;0.40;99.90;;;;;;5011478;28;20199;-87
2023/02/16 01:58:50;;;;;;;12.00;8.30;;;0.40;99.90;;;;;;5010495;28;20717;-88
2023/02/16 02:01:49;;;;;;;11.80;7.97;;;0.40;99.90;;;;;;5010599;28;20195;-89
2023/02/16 02:07:26;;;;;;;13.07;7.33;;;0.40;99.50;;;;;;5009863;28;20222;-87
2023/02/16 02:10:01;;;;;;;10.93;7.10;;;0.30;99.60;;;;;;5012102;28;20681;-88
2023/02/16 02:12:40;;;;;;;12.83;7.40;;;0.30;99.70;;;;;;5009225;28;20576;-88
2023/02/16 02:15:09;;;;;;;12.47;7.93;;;0.20;99.90;;;;;;5015291;28;20690;-89
2023/02/16 02:17:36;;;;;;;9.73;6.80;;;0.20;99.90;;;;;;5014497;28;20199;-88
2023/02/16 02:20:10;;;;;;;9.43;7.40;;;0.20;99.90;;;;;;5012055;28;20199;-88
2023/02/16 02:26:18;;;;;;;10.90;7.47;;;0.30;99.90;;;;;;5014754;28;20201;-86
2023/02/16 02:28:53;;;;;;;11.87;7.53;;;0.20;99.90;;;;;;5015557;28;20202;-86
2023/02/16 02:31:31;;;;;;;11.67;7.80;;;0.10;99.90;;;;;;5033000;28;20203;-87
2023/02/16 02:34:06;;;;;;;13.77;7.90;;;0.10;99.90;;;;;;5037087;28;20223;-86
2023/02/16 02:36:39;;;;;;;12.13;8.07;;;0.20;99.90;;;;;;5026461;28;20202;-88
2023/02/16 02:39:19;;;;;;;12.67;8.20;;;0.10;99.90;;;;;;5015213;28;20672;-87
2023/02/16 02:42:04;;;;;;;11.10;8.03;;;0.10;99.90;;;;;;5011917;28;20671;-88
2023/02/16 02:44:37;;;;;;;11.90;8.20;;;0.00;99.90;;;;;;5009331;28;20678;-84
2023/02/16 02:47:04;;;;;;;11.43;7.87;;;0.00;99.90;;;;;;5008476;28;20199;-89
2023/02/16 02:49:31;;;;;;;11.57;8.23;;;0.10;99.90;;;;;;5013261;28;20198;-85
2023/02/16 02:51:59;;;;;;;12.20;8.10;;;0.10;99.90;;;;;;5012897;28;20218;-88
2023/02/16 03:03:13;;;;;;;14.33;8.27;;;0.10;99.60;;;;;;5007523;28;20361;-88
2023/02/16 03:05:44;;;;;;;13.10;8.00;;;0.00;99.60;;;;;;5016308;28;20892;-85
2023/02/16 03:08:14;;;;;;;9.73;7.50;;;0.00;99.70;;;;;;5014025;28;20214;-88
2023/02/16 03:13:36;;;;;;;11.53;7.97;;;-0.10;99.80;;;;;;5016515;28;20268;-90
2023/02/16 03:16:11;;;;;;;13.63;8.60;;;-0.20;99.90;;;;;;5014391;28;20210;-89
2023/02/16 03:29:48;;;;;;;12.93;8.57;;;-0.20;99.90;;;;;;5035768;28;20245;-88
2023/02/16 03:32:16;;;;;;;11.87;8.47;;;-0.20;99.90;;;;;;5016443;28;20598;-89
2023/02/16 03:34:43;;;;;;;13.87;9.13;;;-0.20;99.90;;;;;;5014563;28;20222;-90
2023/02/16 03:37:11;;;;;;;14.50;9.57;;;-0.30;99.90;;;;;;5015698;28;20217;-90
2023/02/16 03:42:20;;;;;;;14.93;9.67;;;-0.40;99.90;;;;;;5009797;28;20220;-89
2023/02/16 03:44:46;;;;;;;13.23;9.30;;;-0.40;99.90;;;;;;5015057;28;20220;-91
2023/02/16 03:47:13;;;;;;;13.40;8.77;;;-0.40;99.90;;;;;;5013292;28;20655;-90
2023/02/16 03:49:41;;;;;;;13.03;8.70;;;-0.30;99.90;;;;;;5015819;28;20217;-90
2023/02/16 03:52:08;;;;;;;13.40;9.30;;;-0.30;99.90;;;;;;5016226;28;20210;-89
2023/02/16 03:54:35;;;;;;;13.13;9.10;;;-0.30;99.90;;;;;;5015673;28;20236;-87
2023/02/16 03:57:02;;;;;;;12.43;8.90;;;-0.40;99.90;;;;;;5023695;28;20199;-89
2023/02/16 03:59:30;;;;;;;13.23;8.87;;;-0.40;99.90;;;;;;5016635;28;20233;-89
2023/02/16 04:01:58;;;;;;;12.07;8.70;;;-0.40;99.90;;;;;;5012866;28;20202;-91
2023/02/16 04:04:25;;;;;;;11.53;8.60;;;-0.40;99.90;;;;;;5023491;28;20204;-91
2023/02/16 04:06:53;;;;;;;12.13;8.80;;;-0.40;99.90;;;;;;5015667;28;21412;-90
2023/02/16 04:09:19;;;;;;;11.77;8.20;;;-0.40;99.90;;;;;;5017196;28;20221;-88
2023/02/16 04:14:30;;;;;;;13.03;8.73;;;0.40;99.90;;;;;;5017722;28;20532;-90
2023/02/16 04:16:57;;;;;;;11.10;8.20;;;0.90;99.90;;;;;;5011638;28;20203;-89
2023/02/16 04:19:24;;;;;;;12.90;8.10;;;0.90;99.90;;;;;;5014959;28;20203;-90
2023/02/16 04:21:52;;;;;;;13.60;9.40;;;1.00;99.70;;;;;;5014024;28;20213;-89
2023/02/16 04:24:19;;;;;;;24.70;15.53;;;1.00;99.20;;;;;;5013555;28;20210;-89
2023/02/16 04:26:48;;;;;;;20.50;13.03;;;0.80;98.40;;;;;;5012461;28;20260;-89
2023/02/16 04:29:15;;;;;;;28.43;16.27;;;0.90;98.80;;;;;;5014137;28;20223;-88
2023/02/16 04:31:42;;;;;;;23.37;13.53;;;1.20;98.40;;;;;;5015351;28;20204;-88
2023/02/16 04:34:08;;;;;;;14.33;9.63;;;1.40;98.10;;;;;;5014497;28;20223;-90
2023/02/16 04:36:36;;;;;;;14.37;9.13;;;1.60;97.00;;;;;;5015457;28;20226;-87
2023/02/16 04:39:04;;;;;;;13.77;7.73;;;1.60;96.60;;;;;;5015851;28;20627;-90
2023/02/16 04:41:31;;;;;;;10.40;7.83;;;1.60;95.80;;;;;;5012162;28;20204;-86
2023/02/16 04:43:58;;;;;;;11.23;7.47;;;1.40;96.00;;;;;;5011902;28;20278;-88
2023/02/16 04:46:25;;;;;;;10.10;7.27;;;1.30;96.50;;;;;;5014337;28;20387;-89
2023/02/16 04:48:52;;;;;;;13.10;7.60;;;1.30;96.60;;;;;;5013095;28;20206;-89
2023/02/16 04:51:19;;;;;;;9.97;7.03;;;1.30;97.00;;;;;;5014978;28;20207;-89
2023/02/16 04:53:46;;;;;;;11.77;7.27;;;1.30;96.90;;;;;;5015021;28;20249;-88
2023/02/16 04:56:14;;;;;;;10.37;7.20;;;0.90;95.10;;;;;;5013767;28;20213;-89
2023/02/16 04:58:41;;;;;;;11.00;6.93;;;0.90;97.90;;;;;;5014795;28;20211;-89
2023/02/16 05:01:09;;;;;;;10.90;7.80;;;1.20;96.80;;;;;;5014397;28;20210;-90
2023/02/16 05:03:35;;;;;;;18.67;12.50;;;1.20;95.60;;;;;;5014358;28;20211;-89
2023/02/16 05:06:03;;;;;;;38.53;22.57;;;1.00;96.20;;;;;;5014247;28;20199;-90
2023/02/16 05:08:29;;;;;;;15.07;8.00;;;1.00;95.70;;;;;;5008870;28;20214;-85
2023/02/16 05:16:26;;;;;;;12.90;7.87;;;0.70;97.50;;;;;;5014500;28;20206;-90
2023/02/16 05:18:53;;;;;;;9.60;6.57;;;0.50;96.30;;;;;;5011105;28;20211;-90
2023/02/16 05:21:32;;;;;;;9.67;6.50;;;0.20;96.60;;;;;;5015829;28;20214;-89
2023/02/16 05:23:59;;;;;;;10.77;6.90;;;-0.10;97.50;;;;;;5013784;28;20276;-89
2023/02/16 05:26:27;;;;;;;10.13;7.27;;;-0.40;98.30;;;;;;5016457;28;20203;-86
2023/02/16 05:28:56;;;;;;;13.13;8.07;;;-0.60;98.90;;;;;;5018662;28;20214;-89
2023/02/16 05:31:24;;;;;;;13.40;7.83;;;0.00;99.90;;;;;;5027966;28;20210;-87
2023/02/16 05:33:51;;;;;;;9.57;6.77;;;0.50;99.90;;;;;;5017962;28;20234;-89
2023/02/16 05:36:18;;;;;;;11.03;6.93;;;0.40;98.60;;;;;;5014823;28;20195;-89
2023/02/16 05:38:45;;;;;;;11.10;6.90;;;0.10;98.10;;;;;;5014989;28;20214;-89
2023/02/16 05:41:22;;;;;;;9.07;7.00;;;-0.20;98.40;;;;;;5013225;28;20210;-87
2023/02/16 05:43:49;;;;;;;10.33;6.73;;;-0.30;99.10;;;;;;5009200;28;20210;-90
2023/02/16 05:46:17;;;;;;;11.33;7.03;;;-0.20;99.10;;;;;;5014779;28;20212;-89
2023/02/16 05:48:44;;;;;;;12.43;6.73;;;-0.30;99.10;;;;;;5015399;28;20196;-89
2023/02/16 05:51:11;;;;;;;10.23;6.97;;;-0.50;99.10;;;;;;5015708;28;20242;-91
2023/02/16 05:53:38;;;;;;;10.70;7.00;;;-0.40;99.90;;;;;;5013256;28;20226;-89
2023/02/16 05:56:05;;;;;;;8.97;6.80;;;-0.40;99.90;;;;;;5010710;28;20213;-89
2023/02/16 05:58:32;;;;;;;11.20;7.20;;;-0.40;99.80;;;;;;5009726;28;20783;-87
2023/02/16 06:00:59;;;;;;;10.23;6.83;;;-0.50;99.80;;;;;;5016150;28;20210;-89
2023/02/16 06:03:27;;;;;;;9.37;6.17;;;-0.50;99.90;;;;;;5027136;28;20294;-86
2023/02/16 06:05:55;;;;;;;12.27;6.63;;;-0.40;99.90;;;;;;5033311;28;20187;-85
2023/02/16 06:08:22;;;;;;;11.93;7.27;;;-0.30;99.90;;;;;;5029440;28;20226;-89
2023/02/16 06:10:50;;;;;;;11.77;7.20;;;-0.30;99.90;;;;;;5013657;28;20202;-91
2023/02/16 06:13:17;;;;;;;9.83;6.70;;;-0.30;99.70;;;;;;5013314;28;20277;-91
2023/02/16 06:15:44;;;;;;;11.23;6.83;;;-0.30;99.70;;;;;;5018406;28;20202;-93
2023/02/16 06:26:01;;;;;;;10.20;5.47;;;-0.10;99.20;;;;;;5021233;28;20214;-88
2023/02/16 06:28:27;;;;;;;7.87;5.33;;;-0.20;99.10;;;;;;5020092;28;20207;-91
2023/02/16 06:30:54;;;;;;;8.10;5.80;;;-0.20;99.10;;;;;;5019368;28;20293;-87
2023/02/16 06:33:21;;;;;;;7.83;5.60;;;-0.20;99.10;;;;;;5384742;23;20268;-89
2023/02/16 06:38:17;;;;;;;8.17;5.50;;;-0.10;99.20;;;;;;5308108;23;20233;-92
2023/02/16 06:40:44;;;;;;;7.93;5.33;;;-0.10;99.20;;;;;;5015193;28;20210;-90
2023/02/16 06:43:12;;;;;;;7.73;5.20;;;0.00;99.20;;;;;;5014904;28;20203;-88
2023/02/16 06:45:39;;;;;;;7.50;5.20;;;0.00;99.20;;;;;;5013671;28;20583;-90
2023/02/16 06:48:06;;;;;;;7.03;5.23;;;0.20;99.20;;;;;;5014837;28;20210;-90
2023/02/16 06:50:33;;;;;;;8.33;5.63;;;0.20;99.20;;;;;;5018831;28;20199;-91
2023/02/16 06:52:59;;;;;;;8.10;5.77;;;0.30;99.20;;;;;;5019649;28;20203;-88
2023/02/16 07:10:54;;;;;;;11.67;8.07;;;0.60;99.20;;;;;;5428877;23;20288;-87
2023/02/16 07:13:21;;;;;;;12.63;8.33;;;0.70;99.30;;;;;;5585793;23;20222;-87
2023/02/16 07:33:57;;;;;;;14.87;7.90;;;1.50;99.30;;;;;;5033647;23;20235;-87
2023/02/16 07:36:24;;;;;;;13.10;7.50;;;1.60;99.10;;;;;;5015981;28;20199;-88
2023/02/16 07:38:52;;;;;;;15.23;7.70;;;1.70;99.30;;;;;;5014803;28;20180;-90
2023/02/16 07:46:29;;;;;;;16.70;8.03;;;2.20;99.00;;;;;;5791206;23;20234;-88
2023/02/16 07:48:58;;;;;;;20.00;8.57;;;2.60;98.70;;;;;;5030132;28;20199;-89
2023/02/16 07:54:02;;;;;;;15.07;7.47;;;3.20;97.40;;;;;;5249954;23;20249;-87
2023/02/16 07:56:30;;;;;;;13.83;9.03;;;3.30;97.30;;;;;;5570508;23;20219;-87
2023/02/16 07:58:59;;;;;;;17.13;10.13;;;3.50;97.30;;;;;;5037397;28;20293;-90
2023/02/16 08:01:27;;;;;;;16.30;10.40;;;3.60;97.40;;;;;;5036194;28;20211;-92
2023/02/16 08:03:54;;;;;;;15.87;8.83;;;3.80;97.00;;;;;;5034638;28;20221;-92
2023/02/16 08:06:23;;;;;;;16.90;9.37;;;4.00;96.60;;;;;;5031710;28;20209;-93
2023/02/16 08:08:50;;;;;;;13.60;8.90;;;4.00;96.40;;;;;;5035014;28;20209;-92
2023/02/16 08:11:18;;;;;;;10.37;7.87;;;3.80;97.10;;;;;;5034998;28;20203;-91
2023/02/16 08:13:45;;;;;;;12.10;8.30;;;3.70;97.40;;;;;;5032807;28;20191;-91
2023/02/16 08:16:14;;;;;;;9.80;7.50;;;3.70;97.90;;;;;;5036503;28;20187;-91
2023/02/16 08:18:41;;;;;;;13.27;6.90;;;3.80;98.00;;;;;;5031518;28;20199;-92
2023/02/16 08:21:12;;;;;;;14.83;7.50;;;3.80;98.20;;;;;;5034773;28;20217;-94
2023/02/16 08:23:46;;;;;;;11.27;7.23;;;3.90;98.60;;;;;;5030666;28;20219;-89
2023/02/16 08:26:15;;;;;;;10.70;6.67;;;4.00;99.00;;;;;;5069772;23;20222;-92
2023/02/16 08:28:45;;;;;;;10.93;7.13;;;4.30;99.10;;;;;;5033817;28;20196;-90
2023/02/16 08:31:13;;;;;;;11.43;7.40;;;4.50;99.10;;;;;;5018237;28;20219;-90
2023/02/16 08:33:41;;;;;;;13.93;8.55;;;4.80;98.50;;;;;;5016407;28;20219;-92
2023/02/16 08:36:15;;;;;;;14.98;7.55;;;5.10;98.20;;;;;;5016672;28;20505;-92
2023/02/16 08:38:48;;;;;;;12.90;7.38;;;5.30;97.60;;;;;;5017889;28;20194;-90
2023/02/16 08:41:17;;;;;;;10.57;7.25;;;5.60;97.30;;;;;;5016277;28;20270;-95
2023/02/16 08:43:44;;;;;;;14.20;7.88;;;5.80;97.00;;;;;;5007315;28;20218;-96
2023/02/16 08:46:11;;;;;;;9.75;6.85;;;6.00;96.60;;;;;;5001590;28;20219;-94
2023/02/16 08:48:39;;;;;;;16.88;8.32;;;6.00;96.80;;;;;;4987991;28;20262;-94
2023/02/16 08:51:07;;;;;;;14.23;7.43;;;6.20;96.70;;;;;;5010204;28;20270;-92
2023/02/16 08:53:34;;;;;;;11.77;7.28;;;6.50;96.40;;;;;;5008544;28;20224;-94
2023/02/16 08:56:08;;;;;;;11.70;6.80;;;6.80;95.40;;;;;;5005759;28;20223;-95
2023/02/16 08:58:36;;;;;;;9.10;6.63;;;7.10;93.50;;;;;;5004390;28;20215;-94
2023/02/16 09:01:07;;;;;;;10.70;6.57;;;7.20;92.80;;;;;;4973657;28;20226;-94
2023/02/16 09:03:34;;;;;;;8.90;6.40;;;7.50;92.70;;;;;;4983997;28;20220;-96
2023/02/16 09:06:04;;;;;;;10.65;6.50;;;7.80;92.70;;;;;;5003567;28;20231;-96
2023/02/16 09:08:36;;;;;;;9.60;5.85;;;8.10;91.40;;;;;;5000942;28;20219;-95
2023/02/16 09:11:06;;;;;;;10.80;6.60;;;8.30;91.30;;;;;;5001419;28;20242;-96
2023/02/16 09:13:34;;;;;;;9.93;6.57;;;8.60;90.40;;;;;;5005048;28;20215;-93
2023/02/16 09:16:03;;;;;;;10.60;6.68;;;8.90;90.40;;;;;;5003617;28;20235;-93
2023/02/16 09:18:31;;;;;;;8.63;6.50;;;9.20;85.00;;;;;;5015373;28;20260;-94
2023/02/16 09:21:03;;;;;;;10.00;6.45;;;9.70;82.30;;;;;;5009568;28;20219;-90
2023/02/16 09:44:19;;;;;;;8.32;6.57;;;15.00;21.80;;;;;;5032732;28;20212;-91
2023/02/16 09:46:48;;;;;;;9.75;7.00;;;15.40;20.50;;;;;;5027041;28;20966;-88
2023/02/16 09:49:24;;;;;;;11.77;7.32;;;15.90;19.10;;;;;;5176075;22;20202;-87
2023/02/16 09:52:00;;;;;;;10.95;7.90;;;16.00;17.70;;;;;;5052417;28;20229;-88
2023/02/16 09:54:34;;;;;;;13.38;8.10;;;15.70;17.30;;;;;;5054280;28;20229;-88
2023/02/16 09:57:08;;;;;;;15.77;7.53;;;15.60;17.50;;;;;;5047674;28;20202;-90
2023/02/16 09:59:46;;;;;;;13.02;8.23;;;15.80;17.60;;;;;;5047438;28;20202;-89
2023/02/16 10:02:38;;;;;;;13.35;8.27;;;15.90;17.20;;;;;;5047863;28;20210;-89
2023/02/16 10:05:19;;;;;;;13.55;8.27;;;15.90;16.50;;;;;;5042700;28;20481;-91
2023/02/16 10:08:04;;;;;;;10.45;7.90;;;15.90;17.80;;;;;;5050049;28;20276;-92
2023/02/16 10:10:38;;;;;;;13.70;8.35;;;15.80;15.00;;;;;;5050067;28;20199;-92
2023/02/16 10:13:13;;;;;;;11.05;7.78;;;15.60;15.90;;;;;;5047354;28;20233;-90
2023/02/16 10:15:44;;;;;;;15.00;8.02;;;15.70;16.90;;;;;;5049787;28;20222;-88
2023/02/16 10:18:20;;;;;;;13.10;8.32;;;16.10;16.00;;;;;;5044195;28;20266;-90
2023/02/16 10:20:52;;;;;;;12.77;8.38;;;15.80;15.10;;;;;;5048746;28;20270;-89
2023/02/16 10:23:32;;;;;;;9.82;7.40;;;15.50;15.30;;;;;;5050759;28;20217;-89
2023/02/16 10:26:04;;;;;;;13.95;7.93;;;15.30;17.30;;;;;;5053813;28;20206;-89
2023/02/16 10:31:18;;;;;;;13.60;7.57;;;15.20;15.60;;;;;;5336988;23;1224515;-89
2023/02/16 10:36:31;;;;;;;15.65;8.05;;;14.50;16.80;;;;;;6061793;23;21789;-90
2023/02/16 10:39:02;;;;;;;10.40;7.28;;;14.00;16.90;;;;;;5009440;28;20200;-93
2023/02/16 10:41:35;;;;;;;10.98;7.07;;;13.70;17.30;;;;;;5014881;28;20195;-90
2023/02/16 10:46:43;;;;;;;14.27;7.90;;;13.90;18.50;;;;;;6036465;23;20185;-92
2023/02/16 10:51:49;;;;;;;14.73;7.47;;;14.40;16.60;;;;;;5316937;23;20230;-91
2023/02/16 10:54:20;;;;;;;12.38;7.78;;;14.40;17.90;;;;;;5748193;23;20245;-89
2023/02/16 11:30:28;;;;;;;10.52;6.28;;;13.70;16.10;;;;;;5190473;23;20245;-92
2023/02/16 11:35:32;;;;;;;10.80;6.30;;;13.20;17.60;;;;;;5346109;23;20271;-90
2023/02/16 11:38:00;;;;;;;10.93;6.13;;;13.20;17.70;;;;;;5034648;28;20204;-94
2023/02/16 11:40:34;;;;;;;10.30;6.53;;;13.20;18.60;;;;;;5028820;28;20224;-92
2023/02/16 11:43:17;;;;;;;10.27;6.07;;;13.20;18.00;;;;;;5029160;28;20208;-94
2023/02/16 11:49:30;;;;;;;8.93;6.10;;;13.00;18.40;;;;;;5019364;28;20199;-91
2023/02/16 11:51:57;;;;;;;8.82;6.03;;;13.10;18.30;;;;;;5026638;28;20210;-96
2023/02/16 11:54:26;;;;;;;12.40;5.97;;;13.00;18.30;;;;;;5035693;28;20191;-93
2023/02/16 11:57:05;;;;;;;13.10;6.07;;;13.00;18.60;;;;;;5033996;28;20238;-94
2023/02/16 11:59:37;;;;;;;9.70;5.32;;;13.00;17.10;;;;;;5023264;28;20207;-91
2023/02/16 12:11:26;;;;;;;8.40;5.45;;;13.00;17.30;;;;;;5036927;28;20260;-94
2023/02/16 12:14:19;;;;;;;10.60;5.38;;;13.00;16.80;;;;;;5023788;28;20251;-94
2023/02/16 12:16:52;;;;;;;8.52;5.30;;;13.10;16.10;;;;;;5031816;28;20214;-90
2023/02/16 12:25:26;;;;;;;8.88;4.90;;;12.90;17.00;;;;;;5020881;28;20298;-94
2023/02/16 12:27:58;;;;;;;8.60;5.32;;;12.90;16.10;;;;;;5032421;28;20207;-94
2023/02/16 14:22:11;;;;;;;9.77;4.57;;;12.90;14.40;;;;;;5021869;28;20195;-95
2023/02/16 14:24:41;;;;;;;7.32;3.92;;;13.00;14.00;;;;;;5013607;28;20199;-92
2023/02/16 14:27:12;;;;;;;8.68;3.97;;;13.00;15.20;;;;;;5003654;28;20211;-95
2023/02/16 14:29:42;;;;;;;7.28;4.35;;;13.00;13.70;;;;;;5016048;28;20241;-93
2023/02/16 14:34:55;;;;;;;7.38;4.95;;;13.10;13.70;;;;;;5517834;23;20472;-92
2023/02/16 14:37:57;;;;;;;7.30;4.85;;;13.10;13.40;;;;;;6056885;23;20265;-93
2023/02/16 14:43:04;;;;;;;9.18;4.57;;;13.00;13.90;;;;;;5696685;23;20250;-92
2023/02/16 14:53:54;;;;;;;6.93;4.40;;;12.80;14.10;;;;;;5583671;23;20233;-91
2023/02/16 14:56:44;;;;;;;6.75;4.70;;;12.80;14.30;;;;;;5823965;23;20230;-91
2023/02/16 15:04:30;;;;;;;6.95;4.05;;;12.60;14.70;;;;;;5241195;23;20268;-91
2023/02/16 15:06:59;;;;;;;6.63;4.00;;;12.60;14.20;;;;;;5038091;28;20190;-92
2023/02/16 15:09:31;;;;;;;6.32;3.95;;;12.60;14.70;;;;;;5038705;28;20205;-94
2023/02/16 15:12:22;;;;;;;6.72;4.47;;;12.60;14.80;;;;;;5546921;23;20225;-93
2023/02/16 15:14:52;;;;;;;8.88;4.70;;;12.40;14.40;;;;;;5331749;23;20230;-93
2023/02/16 15:17:29;;;;;;;9.13;4.35;;;12.50;14.30;;;;;;5172795;23;20235;-92
2023/02/16 15:28:29;;;;;;;6.70;3.90;;;12.40;15.00;;;;;;5008388;28;20207;-96
2023/02/16 15:52:54;;;;;;;4.95;3.33;;;11.80;13.40;;;;;;5113518;23;21648;-96
2023/02/16 15:55:45;;;;;;;5.30;2.90;;;11.80;13.00;;;;;;4981888;28;20236;-94
2023/02/16 15:58:15;;;;;;;4.75;3.13;;;12.00;12.50;;;;;;4977442;28;20204;-95
2023/02/16 16:00:46;;;;;;;5.15;2.90;;;11.90;13.00;;;;;;4988776;28;20204;-96
2023/02/16 16:06:22;;;;;;;4.35;2.90;;;11.60;13.20;;;;;;4995883;28;20207;-95
2023/02/16 16:08:49;;;;;;;7.18;3.10;;;11.60;13.30;;;;;;5176839;23;20232;-95
2023/02/16 16:16:55;;;;;;;6.43;3.15;;;11.10;14.60;;;;;;4962465;28;20225;-95
2023/02/16 16:24:48;;;;;;;8.25;3.20;;;10.70;14.80;;;;;;5212061;23;20474;-94
2023/02/16 16:27:27;;;;;;;5.70;2.90;;;10.50;15.30;;;;;;4981475;28;20296;-96
2023/02/16 16:30:10;;;;;;;9.73;3.50;;;10.40;15.90;;;;;;4982302;28;20224;-96
2023/02/16 16:32:39;;;;;;;11.65;3.83;;;10.20;16.20;;;;;;4980765;28;20224;-96
2023/02/16 16:38:26;;;;;;;6.88;3.38;;;9.80;18.00;;;;;;4962775;28;20266;-93
2023/02/16 16:40:54;;;;;;;12.02;3.58;;;9.70;18.30;;;;;;4985963;28;20211;-95
2023/02/16 17:50:29;;;;;;;9.65;4.93;;;8.80;21.40;;;;;;5045879;23;20241;-95
2023/02/16 17:52:56;;;;;;;8.70;4.72;;;8.70;21.00;;;;;;5169108;23;20217;-92
2023/02/16 17:57:50;;;;;;;8.27;4.38;;;8.60;22.10;;;;;;4960372;28;20221;-91
2023/02/16 18:00:19;;;;;;;11.48;4.80;;;8.70;22.20;;;;;;4960650;28;20292;-96
2023/02/16 18:02:46;;;;;;;12.18;4.22;;;8.70;22.60;;;;;;4962160;28;20205;-95
2023/02/16 18:05:13;;;;;;;9.05;4.80;;;8.80;21.90;;;;;;4957448;28;20243;-92
2023/02/16 18:07:43;;;;;;;8.45;4.85;;;8.90;21.90;;;;;;4956607;28;20646;-90
2023/02/16 18:10:17;;;;;;;16.00;5.03;;;9.00;22.00;;;;;;4956475;28;20213;-92
2023/02/16 18:12:43;;;;;;;14.20;5.07;;;9.00;21.60;;;;;;4953031;28;20208;-90
2023/02/16 18:15:10;;;;;;;16.65;5.60;;;9.00;21.60;;;;;;4957523;28;20197;-90
2023/02/16 18:17:37;;;;;;;11.27;5.55;;;9.00;21.50;;;;;;4950260;28;20217;-93
2023/02/16 18:20:05;;;;;;;11.45;5.18;;;9.00;21.30;;;;;;4955396;28;20197;-94
2023/02/16 18:22:32;;;;;;;16.02;5.50;;;9.00;21.90;;;;;;4954854;28;20642;-93
2023/02/16 18:25:01;;;;;;;8.48;4.93;;;9.00;22.20;;;;;;4953783;28;20585;-93
2023/02/16 18:27:29;;;;;;;10.48;5.13;;;9.00;22.30;;;;;;4956039;28;20210;-93
2023/02/16 18:29:56;;;;;;;9.32;5.28;;;9.00;22.60;;;;;;4945465;28;20232;-94
2023/02/16 18:32:22;;;;;;;11.40;5.07;;;8.90;22.80;;;;;;4934934;29;20211;-92
2023/02/16 18:34:49;;;;;;;11.35;4.82;;;8.90;23.30;;;;;;4932128;29;20210;-93
2023/02/16 18:37:16;;;;;;;10.27;5.00;;;8.90;23.40;;;;;;4929588;29;21007;-95
2023/02/16 18:39:43;;;;;;;8.57;5.15;;;8.90;23.20;;;;;;4939863;29;20202;-94
2023/02/16 18:42:12;;;;;;;9.13;4.90;;;8.90;23.50;;;;;;4929461;29;20206;-91
2023/02/16 18:44:39;;;;;;;9.80;4.93;;;8.80;24.10;;;;;;4934729;29;20209;-91
2023/02/16 18:47:06;;;;;;;9.68;5.10;;;8.80;24.10;;;;;;4941470;29;20206;-93
2023/02/16 18:49:33;;;;;;;10.30;5.15;;;8.80;24.20;;;;;;4934155;29;20220;-91
2023/02/16 18:52:00;;;;;;;12.88;5.40;;;8.80;24.10;;;;;;4944610;29;20190;-94
2023/02/16 18:54:26;;;;;;;14.02;6.03;;;8.80;24.10;;;;;;4930889;29;20210;-95
2023/02/16 18:56:54;;;;;;;22.17;7.75;;;8.80;24.20;;;;;;4944743;29;20230;-93
2023/02/16 18:59:22;;;;;;;12.02;6.05;;;8.80;24.10;;;;;;4946158;29;20252;-94
2023/02/16 19:01:54;;;;;;;13.43;7.40;;;8.80;24.20;;;;;;4933643;29;20217;-94
2023/02/16 19:04:21;;;;;;;11.40;6.28;;;8.70;24.10;;;;;;4935825;29;20309;-94
2023/02/16 19:06:48;;;;;;;12.73;7.30;;;8.70;24.10;;;;;;4929289;29;20213;-93
2023/02/16 19:09:15;;;;;;;12.40;6.70;;;8.70;24.10;;;;;;4931978;29;20198;-91
2023/02/16 19:11:42;;;;;;;13.23;6.80;;;8.70;24.10;;;;;;4930314;29;20205;-91
2023/02/16 19:14:10;;;;;;;15.63;7.13;;;8.70;24.10;;;;;;4930681;29;20206;-91
2023/02/16 19:16:38;;;;;;;16.40;6.80;;;8.70;24.10;;;;;;4949587;28;20884;-90
2023/02/16 19:19:05;;;;;;;19.88;7.03;;;8.70;25.20;;;;;;4940918;29;20201;-92
2023/02/16 19:21:32;;;;;;;16.10;7.13;;;8.70;24.10;;;;;;4931702;29;20202;-93
2023/02/16 19:23:59;;;;;;;18.02;6.57;;;8.60;24.00;;;;;;4932904;29;20202;-92
2023/02/16 19:26:26;;;;;;;15.90;6.70;;;8.60;24.60;;;;;;4928854;29;20210;-93
2023/02/16 19:28:53;;;;;;;10.45;6.00;;;8.50;26.90;;;;;;4931213;29;20213;-90
2023/02/16 19:31:22;;;;;;;11.63;6.40;;;8.50;24.00;;;;;;4927588;28;20212;-88
2023/02/16 19:33:51;;;;;;;10.98;6.15;;;8.50;24.00;;;;;;4928646;29;20639;-92
2023/02/16 19:36:19;;;;;;;11.57;6.13;;;8.50;24.10;;;;;;4925605;29;20230;-89
2023/02/16 19:38:46;;;;;;;11.80;6.90;;;8.50;25.40;;;;;;4928717;29;20218;-91
2023/02/16 19:41:15;;;;;;;11.18;6.68;;;8.50;26.30;;;;;;4930872;29;21028;-91
2023/02/16 19:43:43;;;;;;;15.88;6.97;;;8.40;26.70;;;;;;4930119;29;20209;-91
2023/02/16 19:46:10;;;;;;;15.63;6.75;;;8.40;26.10;;;;;;4928851;29;20207;-91
2023/02/16 19:48:38;;;;;;;18.17;7.00;;;8.30;26.40;;;;;;4933382;29;20213;-93
2023/02/16 19:51:08;;;;;;;15.95;6.75;;;8.30;26.40;;;;;;4935844;29;20210;-92
2023/02/16 19:53:37;;;;;;;12.25;6.43;;;8.30;27.40;;;;;;4937997;29;20379;-93
2023/02/16 19:56:04;;;;;;;15.55;7.68;;;8.20;28.10;;;;;;4938579;29;20202;-93
2023/02/16 19:58:31;;;;;;;15.40;6.57;;;8.10;29.60;;;;;;4926370;29;20206;-90
2023/02/16 20:00:58;;;;;;;9.73;6.07;;;8.10;30.00;;;;;;4931025;29;20221;-95
2023/02/16 20:03:25;;;;;;;12.95;5.88;;;8.10;28.90;;;;;;4930274;29;20205;-93
2023/02/16 20:05:52;;;;;;;10.05;5.93;;;8.10;29.60;;;;;;4932713;29;20193;-91
2023/02/16 20:08:20;;;;;;;11.82;5.50;;;8.00;30.30;;;;;;4927283;29;20199;-94
2023/02/16 20:10:47;;;;;;;18.33;6.38;;;8.00;29.70;;;;;;4932534;29;20277;-96